createdAt,value
2022-11-15T00:01:11.452Z,57.78
2022-11-15T00:03:41.273Z,60.40
2022-11-15T00:06:12.552Z,57.08
2022-11-15T00:08:42.365Z,51.53
2022-11-15T00:11:16.144Z,54.80
2022-11-15T00:13:46.006Z,48.90
2022-11-15T00:16:15.870Z,53.72
2022-11-15T00:18:50.323Z,57.25
2022-11-15T00:21:21.782Z,48.25
2022-11-15T00:23:51.602Z,49.60
2022-11-15T00:26:24.032Z,52.55
2022-11-15T00:28:56.407Z,50.83
2022-11-15T00:31:26.366Z,49.90
2022-11-15T00:33:56.283Z,49.88
2022-11-15T00:36:26.146Z,49.63
2022-11-15T00:38:55.963Z,51.53
2022-11-15T00:41:28.391Z,50.17
2022-11-15T00:43:58.506Z,55.55
2022-11-15T00:46:29.343Z,53.40
2022-11-15T00:48:59.213Z,56.72
2022-11-15T00:51:29.044Z,53.72
2022-11-15T00:53:58.904Z,53.33
2022-11-15T00:56:31.337Z,54.90
2022-11-15T00:59:01.455Z,49.28
2022-11-15T01:01:31.412Z,49.05
2022-11-15T01:04:01.858Z,45.88
2022-11-15T01:06:31.699Z,54.25
2022-11-15T01:09:01.525Z,49.40
2022-11-15T01:11:33.935Z,48.90
2022-11-15T01:14:03.823Z,45.95
2022-11-15T01:16:34.229Z,48.65
2022-11-15T01:19:04.148Z,49.58
2022-11-15T01:21:34.166Z,51.53
2022-11-15T01:24:04.110Z,51.58
2022-11-15T01:26:38.059Z,48.03
2022-11-15T01:29:08.024Z,42.07
2022-11-15T01:31:37.885Z,45.95
2022-11-15T01:34:07.890Z,52.65
2022-11-15T01:36:37.738Z,49.60
2022-11-15T01:39:07.709Z,51.80
2022-11-15T01:41:40.139Z,49.50
2022-11-15T01:44:44.611Z,47.55
2022-11-15T01:47:19.032Z,52.22
2022-11-15T01:49:57.392Z,46.90
2022-11-15T01:52:31.048Z,50.38
2022-11-15T01:55:07.213Z,47.70
2022-11-15T01:57:40.172Z,42.55
2022-11-15T02:00:12.405Z,46.10
2022-11-15T02:02:42.582Z,48.58
2022-11-15T02:05:13.044Z,46.42
2022-11-15T02:07:43.287Z,50.88
2022-11-15T02:10:16.307Z,47.47
2022-11-15T02:12:49.507Z,48.13
2022-11-15T02:15:19.915Z,50.47
2022-11-15T02:18:15.348Z,44.33
2022-11-15T02:21:20.348Z,46.05
2022-11-15T02:24:35.131Z,47.60
2022-11-15T02:27:39.427Z,50.88
2022-11-15T02:30:28.649Z,46.88
2022-11-15T02:33:04.396Z,48.95
2022-11-15T02:35:46.785Z,45.60
2022-11-15T02:38:26.706Z,44.22
2022-11-15T02:41:02.858Z,51.35
2022-11-15T02:43:53.614Z,45.95
2022-11-15T02:46:44.211Z,43.88
2022-11-15T02:49:16.377Z,45.88
2022-11-15T02:51:49.653Z,43.35
2022-11-15T02:54:25.780Z,42.42
2022-11-15T02:56:59.076Z,47.97
2022-11-15T03:00:05.162Z,49.28
2022-11-15T03:03:12.807Z,45.28
2022-11-15T03:05:52.136Z,45.88
2022-11-15T03:08:31.658Z,48.75
2022-11-15T03:11:11.203Z,47.25
2022-11-15T03:13:48.612Z,50.00
2022-11-15T03:16:25.646Z,44.88
2022-11-15T03:19:03.626Z,50.10
2022-11-15T03:21:36.207Z,47.20
2022-11-15T03:24:10.561Z,49.13
2022-11-15T03:26:44.988Z,47.28
2022-11-15T03:29:19.233Z,50.30
2022-11-15T03:31:58.791Z,45.25
2022-11-15T03:34:37.723Z,47.15
2022-11-15T03:37:08.831Z,45.38
2022-11-15T03:39:38.826Z,46.45
2022-11-15T03:42:21.797Z,44.38
2022-11-15T03:45:01.231Z,44.97
2022-11-15T03:47:36.568Z,51.97
2022-11-15T03:50:14.542Z,42.17
2022-11-15T03:52:45.150Z,44.75
2022-11-15T03:55:19.795Z,47.13
2022-11-15T03:57:53.123Z,45.63
2022-11-15T04:00:23.310Z,47.50
2022-11-15T04:02:53.232Z,43.33
2022-11-15T04:05:25.822Z,46.30
2022-11-15T04:07:55.786Z,43.08
2022-11-15T04:10:25.961Z,45.15
2022-11-15T04:12:55.819Z,43.35
2022-11-15T04:15:27.592Z,42.75
2022-11-15T04:18:00.123Z,40.30
2022-11-15T04:20:47.189Z,43.22
2022-11-15T04:23:32.913Z,44.13
2022-11-15T04:26:06.446Z,44.00
2022-11-15T04:28:36.507Z,42.90
2022-11-15T04:31:06.356Z,48.40
2022-11-15T04:33:36.201Z,56.05
2022-11-15T04:36:22.271Z,47.65
2022-11-15T04:38:52.115Z,50.63
2022-11-15T04:41:21.964Z,57.97
2022-11-15T04:43:51.812Z,52.80
2022-11-15T04:46:21.829Z,50.08
2022-11-15T04:48:56.949Z,51.20
2022-11-15T04:51:30.925Z,48.40
2022-11-15T04:54:00.777Z,49.60
2022-11-15T04:56:30.636Z,46.83
2022-11-15T04:59:00.471Z,50.13
2022-11-15T05:01:30.372Z,47.38
2022-11-15T05:04:12.817Z,48.08
2022-11-15T05:06:45.352Z,45.28
2022-11-15T05:09:16.421Z,44.95
2022-11-15T05:11:46.397Z,42.65
2022-11-15T05:14:16.707Z,39.15
2022-11-15T05:16:46.968Z,44.90
2022-11-15T05:19:16.852Z,44.97
2022-11-15T05:21:49.308Z,43.67
2022-11-15T05:24:19.159Z,43.25
2022-11-15T05:26:48.996Z,44.58
2022-11-15T05:29:18.850Z,46.67
2022-11-15T05:31:48.736Z,43.72
2022-11-15T05:34:19.196Z,41.47
2022-11-15T05:36:51.900Z,46.42
2022-11-15T05:39:21.801Z,45.17
2022-11-15T05:41:56.890Z,44.00
2022-11-15T05:44:27.416Z,41.15
2022-11-15T05:46:59.715Z,48.08
2022-11-15T05:49:35.484Z,40.83
2022-11-15T05:52:09.347Z,42.22
2022-11-15T05:54:40.457Z,42.13
2022-11-15T05:57:10.618Z,40.63
2022-11-15T05:59:41.988Z,44.50
2022-11-15T06:02:11.899Z,43.92
2022-11-15T06:04:41.942Z,42.22
2022-11-15T06:07:14.461Z,38.45
2022-11-15T06:09:44.369Z,39.00
2022-11-15T06:12:14.264Z,43.10
2022-11-15T06:14:44.108Z,42.00
2022-11-15T06:17:13.949Z,44.85
2022-11-15T06:19:43.810Z,40.05
2022-11-15T06:22:16.256Z,41.13
2022-11-15T06:24:46.376Z,40.47
2022-11-15T06:27:16.319Z,44.47
2022-11-15T06:29:46.261Z,40.97
2022-11-15T06:32:16.147Z,42.78
2022-11-15T06:34:46.017Z,42.13
2022-11-15T06:37:18.480Z,44.72
2022-11-15T06:39:48.303Z,44.80
2022-11-15T06:42:18.208Z,42.30
2022-11-15T06:44:48.060Z,42.85
2022-11-15T06:47:17.937Z,43.38
2022-11-15T06:49:47.845Z,43.90
2022-11-15T06:52:20.722Z,48.13
2022-11-15T06:54:50.771Z,47.05
2022-11-15T06:57:20.813Z,46.75
2022-11-15T06:59:50.865Z,48.20
2022-11-15T07:02:20.884Z,66.95
2022-11-15T07:04:50.956Z,57.95
2022-11-15T07:07:23.576Z,53.45
2022-11-15T07:09:53.465Z,52.63
2022-11-15T07:12:23.386Z,50.25
2022-11-15T07:14:53.276Z,54.80
2022-11-15T07:17:23.216Z,55.78
2022-11-15T07:19:53.220Z,55.33
2022-11-15T07:22:25.772Z,52.65
2022-11-15T07:24:55.797Z,49.38
2022-11-15T07:27:25.785Z,50.85
2022-11-15T07:29:58.120Z,49.58
2022-11-15T07:32:28.026Z,52.42
2022-11-15T07:34:57.934Z,50.00
2022-11-15T07:37:30.408Z,58.50
2022-11-15T07:40:00.255Z,54.38
2022-11-15T07:42:45.040Z,53.90
2022-11-15T07:45:14.962Z,51.17
2022-11-15T07:47:44.833Z,63.35
2022-11-15T07:50:14.683Z,58.63
2022-11-15T07:52:47.671Z,58.88
2022-11-15T07:55:18.290Z,59.22
2022-11-15T07:57:49.195Z,57.75
2022-11-15T08:00:21.431Z,58.65
2022-11-15T08:02:51.440Z,56.97
2022-11-15T08:05:21.348Z,57.13
2022-11-15T08:07:53.796Z,57.60
2022-11-15T08:10:23.708Z,60.80
2022-11-15T08:13:02.404Z,58.08
2022-11-15T08:15:32.821Z,63.97
2022-11-15T08:18:04.913Z,65.05
2022-11-15T08:20:35.305Z,59.33
2022-11-15T08:23:09.589Z,69.00
2022-11-15T08:25:39.851Z,62.83
2022-11-15T08:28:11.528Z,68.05
2022-11-15T08:30:46.368Z,62.63
2022-11-15T08:33:17.726Z,67.50
2022-11-15T08:35:48.158Z,57.00
2022-11-15T08:38:20.611Z,69.93
2022-11-15T08:40:50.550Z,63.15
2022-11-15T08:43:20.470Z,65.75
2022-11-15T08:45:50.333Z,61.05
2022-11-15T08:48:20.236Z,62.10
2022-11-15T08:50:50.088Z,58.80
2022-11-15T08:53:22.530Z,62.00
2022-11-15T08:55:52.544Z,62.63
2022-11-15T08:58:22.505Z,62.72
2022-11-15T09:00:52.512Z,56.42
2022-11-15T09:03:22.387Z,60.58
2022-11-15T09:05:52.284Z,60.50
2022-11-15T09:08:46.552Z,53.17
2022-11-15T09:11:15.644Z,60.70
2022-11-15T09:13:45.866Z,58.42
2022-11-15T09:16:16.368Z,57.90
2022-11-15T09:18:46.429Z,61.97
2022-11-15T09:21:16.779Z,53.33
2022-11-15T09:23:49.248Z,57.63
2022-11-15T09:26:19.151Z,55.88
2022-11-15T09:28:51.900Z,54.75
2022-11-15T09:31:22.441Z,50.95
2022-11-15T09:33:52.403Z,49.80
2022-11-15T09:36:22.406Z,48.63
2022-11-15T09:38:54.931Z,53.85
2022-11-15T09:41:54.782Z,48.90
2022-11-15T09:44:45.090Z,51.20
2022-11-15T09:47:45.991Z,45.67
2022-11-15T09:50:19.432Z,41.42
2022-11-15T09:52:49.621Z,41.97
2022-11-15T09:55:23.750Z,44.10
2022-11-15T09:58:03.508Z,38.50
2022-11-15T10:00:46.661Z,38.13
2022-11-15T10:03:30.242Z,36.92
2022-11-15T10:06:05.515Z,42.13
2022-11-15T10:08:54.387Z,37.65
2022-11-15T10:11:37.290Z,38.08
2022-11-15T10:14:15.258Z,36.80
2022-11-15T10:17:18.016Z,35.58
2022-11-15T10:20:05.331Z,40.63
2022-11-15T10:22:43.311Z,33.78
2022-11-15T10:25:29.268Z,36.70
2022-11-15T10:28:07.910Z,34.65
2022-11-15T10:30:40.692Z,32.72
2022-11-15T10:33:23.777Z,31.95
2022-11-15T10:36:26.268Z,29.10
2022-11-15T10:39:00.588Z,39.45
2022-11-15T10:41:39.383Z,32.78
2022-11-15T10:44:28.298Z,37.40
2022-11-15T10:47:39.659Z,29.08
2022-11-15T10:50:30.563Z,30.40
2022-11-15T10:53:01.417Z,34.28
2022-11-15T10:55:34.249Z,32.63
2022-11-15T10:58:09.538Z,29.55
2022-11-15T11:00:42.879Z,28.00
2022-11-15T11:03:32.963Z,26.95
2022-11-15T11:06:13.931Z,27.63
2022-11-15T11:08:44.609Z,36.35
2022-11-15T11:11:14.513Z,28.52
2022-11-15T11:13:44.393Z,32.20
2022-11-15T11:16:45.974Z,27.58
2022-11-15T11:19:43.035Z,31.35
2022-11-15T11:22:24.312Z,27.38
2022-11-15T11:25:08.770Z,36.30
2022-11-15T11:27:54.384Z,23.85
2022-11-15T11:30:32.535Z,27.35
2022-11-15T11:33:16.954Z,24.27
2022-11-15T11:35:59.455Z,31.85
2022-11-15T11:38:46.534Z,26.73
2022-11-15T11:41:31.025Z,29.52
2022-11-15T11:44:19.690Z,24.75
2022-11-15T11:46:57.388Z,30.33
2022-11-15T11:49:38.312Z,28.13
2022-11-15T11:52:16.826Z,33.13
2022-11-15T11:55:05.295Z,29.17
2022-11-15T11:57:46.726Z,25.48
2022-11-15T12:00:24.492Z,26.15
2022-11-15T12:03:13.369Z,28.50
2022-11-15T12:05:52.462Z,26.85
2022-11-15T12:08:34.471Z,24.70
2022-11-15T12:11:13.551Z,30.05
2022-11-15T12:13:44.422Z,25.75
2022-11-15T12:16:21.630Z,28.55
2022-11-15T12:18:55.393Z,24.67
2022-11-15T12:21:39.431Z,27.37
2022-11-15T12:24:17.170Z,28.65
2022-11-15T12:26:53.554Z,26.20
2022-11-15T12:29:32.184Z,25.00
2022-11-15T12:32:04.795Z,29.42
2022-11-15T12:34:50.698Z,27.45
2022-11-15T12:37:56.295Z,29.85
2022-11-15T12:41:18.054Z,28.33
2022-11-15T12:43:49.261Z,26.20
2022-11-15T12:47:06.237Z,24.77
2022-11-15T12:49:51.664Z,26.60
2022-11-15T12:52:23.307Z,29.85
2022-11-15T12:55:05.777Z,24.83
2022-11-15T12:57:44.199Z,30.85
2022-11-15T13:00:48.024Z,31.27
2022-11-15T13:03:31.601Z,25.60
2022-11-15T13:06:45.113Z,25.55
2022-11-15T13:09:55.036Z,23.02
2022-11-15T13:12:59.191Z,27.17
2022-11-15T13:15:49.995Z,26.27
2022-11-15T13:18:42.298Z,22.30
2022-11-15T13:21:40.163Z,23.85
2022-11-15T13:24:18.021Z,26.30
2022-11-15T13:26:48.097Z,25.73
2022-11-15T13:29:24.644Z,26.60
2022-11-15T13:31:56.691Z,23.05
2022-11-15T13:34:52.511Z,23.00
2022-11-15T13:37:35.496Z,22.35
2022-11-15T13:40:25.982Z,28.38
2022-11-15T13:42:55.900Z,23.17
2022-11-15T13:45:30.657Z,27.10
2022-11-15T13:48:02.262Z,22.63
2022-11-15T13:50:37.370Z,22.40
2022-11-15T13:53:08.734Z,22.95
2022-11-15T13:55:39.526Z,24.33
2022-11-15T13:58:10.317Z,27.63
2022-11-15T14:00:45.538Z,23.38
2022-11-15T14:03:23.389Z,24.50
2022-11-15T14:06:12.932Z,22.88
2022-11-15T14:08:45.256Z,21.60
2022-11-15T14:11:21.687Z,24.48
2022-11-15T14:14:17.268Z,23.48
2022-11-15T14:16:52.022Z,26.95
2022-11-15T14:19:43.326Z,22.40
2022-11-15T14:22:26.559Z,25.05
2022-11-15T14:25:19.921Z,22.08
2022-11-15T14:28:39.272Z,20.10
2022-11-15T14:31:16.655Z,21.85
2022-11-15T14:33:46.703Z,26.67
2022-11-15T14:36:20.294Z,17.75
2022-11-15T14:38:51.776Z,20.15
2022-11-15T14:41:25.207Z,22.15
2022-11-15T14:43:57.950Z,19.58
2022-11-15T14:46:28.287Z,22.00
2022-11-15T14:48:59.013Z,21.30
2022-11-15T14:51:29.810Z,21.98
2022-11-15T14:54:00.033Z,19.52
2022-11-15T14:56:30.867Z,24.17
2022-11-15T14:59:03.576Z,22.90
2022-11-15T15:01:33.575Z,22.15
2022-11-15T15:04:03.587Z,25.55
2022-11-15T15:06:34.392Z,27.50
2022-11-15T15:09:05.329Z,27.55
2022-11-15T15:11:35.932Z,24.55
2022-11-15T15:14:08.496Z,31.42
2022-11-15T15:16:39.035Z,31.67
2022-11-15T15:19:08.994Z,29.63
2022-11-15T15:21:39.285Z,29.23
2022-11-15T15:24:09.678Z,29.77
2022-11-15T15:26:40.156Z,34.50
2022-11-15T15:29:12.736Z,31.50
2022-11-15T15:31:42.643Z,34.95
2022-11-15T15:34:16.837Z,38.45
2022-11-15T15:36:47.029Z,40.67
2022-11-15T15:39:17.011Z,42.22
2022-11-15T15:41:46.862Z,38.85
2022-11-15T15:44:19.801Z,38.85
2022-11-15T15:46:49.684Z,42.55
2022-11-15T15:49:20.580Z,38.00
2022-11-15T15:51:50.468Z,48.63
2022-11-15T15:54:21.005Z,46.83
2022-11-15T15:56:55.936Z,44.75
2022-11-15T15:59:28.644Z,44.08
2022-11-15T16:01:58.501Z,47.38
2022-11-15T16:04:29.583Z,48.83
2022-11-15T16:07:03.452Z,52.38
2022-11-15T16:09:45.790Z,50.33
2022-11-15T16:12:17.339Z,57.22
2022-11-15T16:14:49.781Z,54.47
2022-11-15T16:17:24.838Z,55.17
2022-11-15T16:19:55.095Z,55.00
2022-11-15T16:22:25.195Z,60.10
2022-11-15T16:24:55.116Z,58.50
2022-11-15T16:27:26.317Z,54.78
2022-11-15T16:29:58.730Z,57.75
2022-11-15T16:32:28.582Z,54.67
2022-11-15T16:34:58.514Z,58.42
2022-11-15T16:37:28.476Z,55.28
2022-11-15T16:40:00.964Z,53.38
2022-11-15T16:42:31.242Z,58.47
2022-11-15T16:45:04.085Z,56.55
2022-11-15T16:47:33.951Z,54.63
2022-11-15T16:50:03.848Z,58.63
2022-11-15T16:52:33.757Z,62.50
2022-11-15T16:55:03.603Z,59.00
2022-11-15T16:57:33.468Z,54.85
2022-11-15T17:00:06.758Z,53.72
2022-11-15T17:02:36.672Z,62.65
2022-11-15T17:05:11.051Z,57.72
2022-11-15T17:07:43.464Z,61.10
2022-11-15T17:10:15.135Z,59.05
2022-11-15T17:12:45.123Z,58.85
2022-11-15T17:15:17.616Z,56.38
2022-11-15T17:17:48.167Z,57.65
2022-11-15T17:20:20.998Z,58.47
2022-11-15T17:22:50.871Z,57.33
2022-11-15T17:25:21.196Z,60.60
2022-11-15T17:27:51.063Z,54.10
2022-11-15T17:30:23.526Z,53.97
2022-11-15T17:32:53.389Z,56.88
2022-11-15T17:35:23.235Z,58.53
2022-11-15T17:37:53.288Z,57.90
2022-11-15T17:40:23.127Z,55.95
2022-11-15T17:42:53.352Z,55.10
2022-11-15T17:45:25.784Z,57.35
2022-11-15T17:47:55.808Z,50.83
2022-11-15T17:50:25.710Z,54.35
2022-11-15T17:52:56.075Z,52.88
2022-11-15T17:55:25.948Z,51.53
2022-11-15T17:57:55.812Z,57.35
2022-11-15T18:00:28.271Z,58.35
2022-11-15T18:03:00.370Z,60.72
2022-11-15T18:05:30.256Z,59.53
2022-11-15T18:08:00.322Z,59.30
2022-11-15T18:10:30.151Z,58.35
2022-11-15T18:12:59.990Z,59.25
2022-11-15T18:15:32.435Z,57.83
2022-11-15T18:18:02.271Z,67.78
2022-11-15T18:20:32.439Z,61.63
2022-11-15T18:23:02.294Z,62.92
2022-11-15T18:25:32.129Z,67.80
2022-11-15T18:28:01.980Z,59.95
2022-11-15T18:30:34.396Z,62.65
2022-11-15T18:33:04.224Z,63.65
2022-11-15T18:35:34.101Z,55.58
2022-11-15T18:38:03.953Z,62.58
2022-11-15T18:40:33.979Z,59.10
2022-11-15T18:43:03.824Z,61.22
2022-11-15T18:45:37.361Z,62.78
2022-11-15T18:48:07.561Z,60.42
2022-11-15T18:50:37.408Z,58.30
2022-11-15T18:53:07.244Z,55.05
2022-11-15T18:55:37.084Z,60.50
2022-11-15T18:58:06.915Z,62.97
2022-11-15T19:00:39.366Z,56.90
2022-11-15T19:03:09.260Z,56.47
2022-11-15T19:05:39.186Z,52.60
2022-11-15T19:08:09.020Z,59.88
2022-11-15T19:10:38.890Z,62.65
2022-11-15T19:13:08.792Z,58.42
2022-11-15T19:15:41.275Z,56.85
2022-11-15T19:18:11.910Z,59.05
2022-11-15T19:20:41.734Z,52.33
2022-11-15T19:23:11.592Z,55.15
2022-11-15T19:25:41.407Z,61.97
2022-11-15T19:28:14.572Z,53.42
2022-11-15T19:30:46.981Z,52.28
2022-11-15T19:33:16.839Z,57.00
2022-11-15T19:35:47.220Z,55.88
2022-11-15T19:38:17.319Z,59.95
2022-11-15T19:40:47.186Z,52.33
2022-11-15T19:43:17.035Z,48.58
2022-11-15T19:46:00.931Z,49.45
2022-11-15T19:51:04.559Z,49.58
2022-11-15T19:53:35.971Z,50.90
2022-11-15T19:56:09.284Z,56.15
2022-11-15T19:58:42.080Z,52.97
2022-11-15T20:01:20.543Z,48.22
2022-11-15T20:03:54.606Z,49.28
2022-11-15T20:06:28.406Z,55.08
2022-11-15T20:08:58.659Z,50.55
2022-11-15T20:11:29.416Z,53.72
2022-11-15T20:14:02.122Z,50.65
2022-11-15T20:16:34.704Z,50.13
2022-11-15T20:19:04.719Z,48.17
2022-11-15T20:21:34.669Z,46.28
2022-11-15T20:24:04.928Z,44.05
2022-11-15T20:26:35.679Z,50.45
2022-11-15T20:29:05.838Z,46.65
2022-11-15T20:31:38.867Z,52.42
2022-11-15T20:34:09.003Z,45.67
2022-11-15T20:36:38.865Z,47.53
2022-11-15T20:39:09.160Z,47.83
2022-11-15T20:41:39.008Z,50.70
2022-11-15T20:44:08.927Z,53.15
2022-11-15T20:46:41.330Z,48.17
2022-11-15T20:49:11.149Z,51.95
2022-11-15T20:51:40.975Z,47.80
2022-11-15T20:54:10.851Z,53.08
2022-11-15T20:56:40.782Z,49.42
2022-11-15T20:59:10.642Z,51.40
2022-11-15T21:01:43.273Z,47.83
2022-11-15T21:04:13.191Z,55.38
2022-11-15T21:06:47.574Z,50.60
2022-11-15T21:09:31.315Z,49.40
2022-11-15T21:12:13.680Z,52.63
2022-11-15T21:14:45.083Z,51.20
2022-11-15T21:17:17.869Z,53.95
2022-11-15T21:19:47.744Z,56.42
2022-11-15T21:22:17.983Z,57.20
2022-11-15T21:24:47.961Z,52.42
2022-11-15T21:27:19.347Z,54.95
2022-11-15T21:29:51.250Z,57.03
2022-11-15T21:32:23.754Z,50.70
2022-11-15T21:34:54.386Z,53.33
2022-11-15T21:37:24.247Z,61.83
2022-11-15T21:39:54.098Z,63.72
2022-11-15T21:42:23.933Z,58.45
2022-11-15T21:44:53.767Z,59.92
2022-11-15T21:47:26.163Z,71.70
2022-11-15T21:49:57.276Z,61.28
2022-11-15T21:52:28.497Z,55.22
2022-11-15T21:55:01.320Z,69.25
2022-11-15T21:57:38.200Z,60.78
2022-11-15T22:00:25.775Z,62.53
2022-11-15T22:02:58.724Z,63.65
2022-11-15T22:05:29.064Z,60.63
2022-11-15T22:08:03.275Z,61.45
2022-11-15T22:10:33.620Z,65.20
2022-11-15T22:13:03.819Z,65.72
2022-11-15T22:15:33.715Z,62.65
2022-11-15T22:18:06.251Z,59.22
2022-11-15T22:20:44.885Z,55.72
2022-11-15T22:23:15.049Z,52.15
2022-11-15T22:25:45.911Z,65.07
2022-11-15T22:28:15.606Z,67.72
2022-11-15T22:30:48.057Z,63.05
2022-11-15T22:33:23.149Z,60.08
2022-11-15T22:35:53.292Z,57.83
2022-11-15T22:38:23.528Z,61.63
2022-11-15T22:40:53.919Z,61.88
2022-11-15T22:43:25.493Z,57.28
2022-11-15T22:45:56.360Z,58.10
2022-11-15T22:48:32.188Z,67.53
2022-11-15T22:51:02.970Z,58.30
2022-11-15T22:53:33.586Z,62.35
2022-11-15T22:56:06.297Z,58.10
2022-11-15T22:58:37.057Z,63.13
2022-11-15T23:01:08.767Z,59.60
2022-11-15T23:03:41.218Z,56.05
2022-11-15T23:06:12.249Z,59.63
2022-11-15T23:08:42.405Z,61.97
2022-11-15T23:11:41.629Z,54.67
2022-11-15T23:14:11.505Z,60.13
2022-11-15T23:16:41.320Z,59.95
2022-11-15T23:19:15.407Z,56.45
2022-11-15T23:22:00.051Z,53.80
2022-11-15T23:24:30.173Z,64.30
2022-11-15T23:27:02.973Z,57.22
2022-11-15T23:29:53.678Z,69.90
2022-11-15T23:32:36.119Z,59.90
2022-11-15T23:35:09.436Z,63.70
2022-11-15T23:37:39.347Z,69.57
2022-11-15T23:40:12.003Z,54.75
2022-11-15T23:42:41.903Z,58.13
2022-11-15T23:45:12.606Z,55.47
2022-11-15T23:47:42.424Z,64.68
2022-11-15T23:50:14.784Z,58.92
2022-11-15T23:52:44.663Z,62.17
2022-11-15T23:55:14.457Z,74.55
2022-11-15T23:57:44.388Z,64.00
